sensor_id;sensor_type;location;lat;lon;timestamp;temperature;humidity
59313;DHT22;45084;51.486;7.366;2023-09-07T00:00:48;15.70;99.90
59313;DHT22;45084;51.486;7.366;2023-09-07T00:03:14;15.70;99.90
59313;DHT22;45084;51.486;7.366;2023-09-07T00:05:40;15.70;99.90
59313;DHT22;45084;51.486;7.366;2023-09-07T00:08:06;15.60;99.90
59313;DHT22;45084;51.486;7.366;2023-09-07T00:10:35;15.60;99.90
59313;DHT22;45084;51.486;7.366;2023-09-07T00:13:01;15.60;99.90
59313;DHT22;45084;51.486;7.366;2023-09-07T00:15:28;15.50;99.90
59313;DHT22;45084;51.486;7.366;2023-09-07T00:17:55;15.50;99.90
59313;DHT22;45084;51.486;7.366;2023-09-07T00:20:21;15.50;99.90
59313;DHT22;45084;51.486;7.366;2023-09-07T00:22:48;15.50;99.90
59313;DHT22;45084;51.486;7.366;2023-09-07T00:25:13;15.50;99.90
59313;DHT22;45084;51.486;7.366;2023-09-07T00:27:39;15.50;99.90
59313;DHT22;45084;51.486;7.366;2023-09-07T00:30:06;15.40;99.90
59313;DHT22;45084;51.486;7.366;2023-09-07T00:32:36;15.40;99.90
59313;DHT22;45084;51.486;7.366;2023-09-07T00:35:02;15.40;99.90
59313;DHT22;45084;51.486;7.366;2023-09-07T00:37:27;15.30;99.90
59313;DHT22;45084;51.486;7.366;2023-09-07T00:39:55;15.40;99.90
59313;DHT22;45084;51.486;7.366;2023-09-07T00:42:21;15.30;99.90
59313;DHT22;45084;51.486;7.366;2023-09-07T00:44:46;15.30;99.90
59313;DHT22;45084;51.486;7.366;2023-09-07T00:47:14;15.30;99.90
59313;DHT22;45084;51.486;7.366;2023-09-07T00:49:40;15.20;99.90
59313;DHT22;45084;51.486;7.366;2023-09-07T00:52:08;15.30;99.90
59313;DHT22;45084;51.486;7.366;2023-09-07T00:54:34;15.20;99.90
59313;DHT22;45084;51.486;7.366;2023-09-07T00:57:03;15.20;99.90
59313;DHT22;45084;51.486;7.366;2023-09-07T00:59:29;15.20;99.90
59313;DHT22;45084;51.486;7.366;2023-09-07T01:01:54;15.20;99.90
59313;DHT22;45084;51.486;7.366;2023-09-07T01:04:20;15.20;99.90
59313;DHT22;45084;51.486;7.366;2023-09-07T01:06:56;15.10;99.90
59313;DHT22;45084;51.486;7.366;2023-09-07T01:09:24;15.10;99.90
59313;DHT22;45084;51.486;7.366;2023-09-07T01:11:50;15.10;99.90
59313;DHT22;45084;51.486;7.366;2023-09-07T01:14:15;15.10;99.90
59313;DHT22;45084;51.486;7.366;2023-09-07T01:16:41;15.10;99.90
59313;DHT22;45084;51.486;7.366;2023-09-07T01:19:07;15.00;99.90
59313;DHT22;45084;51.486;7.366;2023-09-07T01:21:38;15.00;99.90
59313;DHT22;45084;51.486;7.366;2023-09-07T01:24:07;14.90;99.90
59313;DHT22;45084;51.486;7.366;2023-09-07T01:26:37;15.00;99.90
59313;DHT22;45084;51.486;7.366;2023-09-07T01:29:08;14.90;99.90
59313;DHT22;45084;51.486;7.366;2023-09-07T01:31:35;14.80;99.90
59313;DHT22;45084;51.486;7.366;2023-09-07T01:34:01;14.90;99.90
59313;DHT22;45084;51.486;7.366;2023-09-07T01:36:30;14.80;99.90
59313;DHT22;45084;51.486;7.366;2023-09-07T01:38:56;14.80;99.90
59313;DHT22;45084;51.486;7.366;2023-09-07T01:41:21;14.80;99.90
59313;DHT22;45084;51.486;7.366;2023-09-07T01:43:48;14.80;99.90
59313;DHT22;45084;51.486;7.366;2023-09-07T01:46:13;14.70;99.90
59313;DHT22;45084;51.486;7.366;2023-09-07T01:48:39;14.70;99.90
59313;DHT22;45084;51.486;7.366;2023-09-07T01:51:04;14.70;99.90
59313;DHT22;45084;51.486;7.366;2023-09-07T01:53:30;14.70;99.90
59313;DHT22;45084;51.486;7.366;2023-09-07T01:55:56;14.70;99.90
59313;DHT22;45084;51.486;7.366;2023-09-07T01:58:22;14.70;99.90
59313;DHT22;45084;51.486;7.366;2023-09-07T02:00:49;14.70;99.90
59313;DHT22;45084;51.486;7.366;2023-09-07T02:03:17;14.70;99.90
59313;DHT22;45084;51.486;7.366;2023-09-07T02:05:45;14.70;99.90
59313;DHT22;45084;51.486;7.366;2023-09-07T02:08:11;14.60;99.90
59313;DHT22;45084;51.486;7.366;2023-09-07T02:10:37;14.60;99.90
59313;DHT22;45084;51.486;7.366;2023-09-07T02:13:03;14.60;99.90
59313;DHT22;45084;51.486;7.366;2023-09-07T02:15:29;14.60;99.90
59313;DHT22;45084;51.486;7.366;2023-09-07T02:17:54;14.50;99.90
59313;DHT22;45084;51.486;7.366;2023-09-07T02:20:20;14.50;99.90
59313;DHT22;45084;51.486;7.366;2023-09-07T02:22:46;14.50;99.90
59313;DHT22;45084;51.486;7.366;2023-09-07T02:25:14;14.50;99.90
59313;DHT22;45084;51.486;7.366;2023-09-07T02:28:13;14.50;99.90
59313;DHT22;45084;51.486;7.366;2023-09-07T02:31:05;14.40;99.90
59313;DHT22;45084;51.486;7.366;2023-09-07T02:33:55;14.40;99.90
59313;DHT22;45084;51.486;7.366;2023-09-07T02:51:56;14.30;99.90
59313;DHT22;45084;51.486;7.366;2023-09-07T02:54:23;14.20;99.90
59313;DHT22;45084;51.486;7.366;2023-09-07T02:56:49;14.20;99.90
59313;DHT22;45084;51.486;7.366;2023-09-07T02:59:15;14.20;99.90
59313;DHT22;45084;51.486;7.366;2023-09-07T03:01:40;14.10;99.90
59313;DHT22;45084;51.486;7.366;2023-09-07T03:04:09;14.10;99.90
59313;DHT22;45084;51.486;7.366;2023-09-07T03:06:35;14.10;99.90
59313;DHT22;45084;51.486;7.366;2023-09-07T03:09:00;14.10;99.90
59313;DHT22;45084;51.486;7.366;2023-09-07T03:11:26;14.10;99.90
59313;DHT22;45084;51.486;7.366;2023-09-07T03:14:01;14.10;99.90
59313;DHT22;45084;51.486;7.366;2023-09-07T03:16:27;14.10;99.90
59313;DHT22;45084;51.486;7.366;2023-09-07T03:18:56;14.00;99.90
59313;DHT22;45084;51.486;7.366;2023-09-07T03:21:22;14.00;99.90
59313;DHT22;45084;51.486;7.366;2023-09-07T03:23:55;14.00;99.90
59313;DHT22;45084;51.486;7.366;2023-09-07T03:26:21;13.90;99.90
59313;DHT22;45084;51.486;7.366;2023-09-07T03:28:46;13.90;99.90
59313;DHT22;45084;51.486;7.366;2023-09-07T03:31:12;13.90;99.90
59313;DHT22;45084;51.486;7.366;2023-09-07T03:33:40;14.00;99.90
59313;DHT22;45084;51.486;7.366;2023-09-07T03:36:09;13.90;99.90
59313;DHT22;45084;51.486;7.366;2023-09-07T03:38:36;13.90;99.90
59313;DHT22;45084;51.486;7.366;2023-09-07T03:41:01;13.90;99.90
59313;DHT22;45084;51.486;7.366;2023-09-07T03:43:27;13.90;99.90
59313;DHT22;45084;51.486;7.366;2023-09-07T03:45:53;13.80;99.90
59313;DHT22;45084;51.486;7.366;2023-09-07T03:48:21;13.80;99.90
59313;DHT22;45084;51.486;7.366;2023-09-07T03:50:49;13.80;99.90
59313;DHT22;45084;51.486;7.366;2023-09-07T03:53:17;13.80;99.90
59313;DHT22;45084;51.486;7.366;2023-09-07T03:55:44;13.80;99.90
59313;DHT22;45084;51.486;7.366;2023-09-07T03:58:12;13.70;99.90
59313;DHT22;45084;51.486;7.366;2023-09-07T04:00:41;13.70;99.90
59313;DHT22;45084;51.486;7.366;2023-09-07T04:03:08;13.60;99.90
59313;DHT22;45084;51.486;7.366;2023-09-07T04:05:54;13.60;99.90
59313;DHT22;45084;51.486;7.366;2023-09-07T04:08:19;13.70;99.90
59313;DHT22;45084;51.486;7.366;2023-09-07T04:10:45;13.60;99.90
59313;DHT22;45084;51.486;7.366;2023-09-07T04:13:43;13.60;99.90
59313;DHT22;45084;51.486;7.366;2023-09-07T04:16:11;13.60;99.90
59313;DHT22;45084;51.486;7.366;2023-09-07T04:18:40;13.60;99.90
59313;DHT22;45084;51.486;7.366;2023-09-07T04:21:11;13.60;99.90
59313;DHT22;45084;51.486;7.366;2023-09-07T04:23:36;13.60;99.90
59313;DHT22;45084;51.486;7.366;2023-09-07T04:26:07;13.60;99.90
59313;DHT22;45084;51.486;7.366;2023-09-07T04:28:36;13.60;99.90
59313;DHT22;45084;51.486;7.366;2023-09-07T04:31:02;13.50;99.90
59313;DHT22;45084;51.486;7.366;2023-09-07T04:33:34;13.50;99.90
59313;DHT22;45084;51.486;7.366;2023-09-07T04:36:10;13.50;99.90
59313;DHT22;45084;51.486;7.366;2023-09-07T04:38:36;13.50;99.90
59313;DHT22;45084;51.486;7.366;2023-09-07T04:41:10;13.50;99.90
59313;DHT22;45084;51.486;7.366;2023-09-07T04:43:39;13.50;99.90
59313;DHT22;45084;51.486;7.366;2023-09-07T04:46:12;13.50;99.90
59313;DHT22;45084;51.486;7.366;2023-09-07T04:48:37;13.40;99.90
59313;DHT22;45084;51.486;7.366;2023-09-07T04:51:04;13.40;99.90
59313;DHT22;45084;51.486;7.366;2023-09-07T04:53:34;13.50;99.90
59313;DHT22;45084;51.486;7.366;2023-09-07T04:56:03;13.50;99.90
59313;DHT22;45084;51.486;7.366;2023-09-07T04:58:29;13.40;99.90
59313;DHT22;45084;51.486;7.366;2023-09-07T05:01:08;13.40;99.90
59313;DHT22;45084;51.486;7.366;2023-09-07T05:03:35;13.40;99.90
59313;DHT22;45084;51.486;7.366;2023-09-07T05:06:01;13.40;99.90
59313;DHT22;45084;51.486;7.366;2023-09-07T05:08:28;13.40;99.90
59313;DHT22;45084;51.486;7.366;2023-09-07T05:11:05;13.40;99.90
59313;DHT22;45084;51.486;7.366;2023-09-07T05:13:31;13.50;99.90
59313;DHT22;45084;51.486;7.366;2023-09-07T05:15:59;13.50;99.90
59313;DHT22;45084;51.486;7.366;2023-09-07T05:18:30;13.50;99.90
59313;DHT22;45084;51.486;7.366;2023-09-07T05:20:55;13.50;99.90
59313;DHT22;45084;51.486;7.366;2023-09-07T05:23:22;13.50;99.90
59313;DHT22;45084;51.486;7.366;2023-09-07T05:25:52;13.50;99.90
59313;DHT22;45084;51.486;7.366;2023-09-07T05:28:19;13.60;99.90
59313;DHT22;45084;51.486;7.366;2023-09-07T05:30:45;13.60;99.90
59313;DHT22;45084;51.486;7.366;2023-09-07T05:33:13;13.60;99.90
59313;DHT22;45084;51.486;7.366;2023-09-07T05:35:39;13.70;99.90
59313;DHT22;45084;51.486;7.366;2023-09-07T05:38:05;13.70;99.90
59313;DHT22;45084;51.486;7.366;2023-09-07T05:40:35;13.70;99.90
59313;DHT22;45084;51.486;7.366;2023-09-07T05:43:01;13.70;99.90
59313;DHT22;45084;51.486;7.366;2023-09-07T05:45:29;13.80;99.90
59313;DHT22;45084;51.486;7.366;2023-09-07T05:47:56;13.80;99.90
59313;DHT22;45084;51.486;7.366;2023-09-07T05:50:21;13.90;99.90
59313;DHT22;45084;51.486;7.366;2023-09-07T05:52:47;13.90;99.90
59313;DHT22;45084;51.486;7.366;2023-09-07T05:55:13;13.90;99.90
59313;DHT22;45084;51.486;7.366;2023-09-07T05:57:38;14.00;99.90
59313;DHT22;45084;51.486;7.366;2023-09-07T06:00:04;14.10;99.90
59313;DHT22;45084;51.486;7.366;2023-09-07T06:02:30;14.20;99.90
59313;DHT22;45084;51.486;7.366;2023-09-07T06:04:56;14.20;99.90
59313;DHT22;45084;51.486;7.366;2023-09-07T06:07:21;14.40;99.90
59313;DHT22;45084;51.486;7.366;2023-09-07T06:09:47;14.50;99.90
59313;DHT22;45084;51.486;7.366;2023-09-07T06:12:13;14.60;99.90
59313;DHT22;45084;51.486;7.366;2023-09-07T06:14:39;14.70;99.90
59313;DHT22;45084;51.486;7.366;2023-09-07T06:17:04;14.80;99.90
59313;DHT22;45084;51.486;7.366;2023-09-07T06:19:31;15.00;99.90
59313;DHT22;45084;51.486;7.366;2023-09-07T06:21:56;15.20;99.90
59313;DHT22;45084;51.486;7.366;2023-09-07T06:24:22;15.40;99.90
59313;DHT22;45084;51.486;7.366;2023-09-07T06:26:48;15.50;99.90
59313;DHT22;45084;51.486;7.366;2023-09-07T06:29:13;15.70;99.90
59313;DHT22;45084;51.486;7.366;2023-09-07T06:31:39;15.80;99.90
59313;DHT22;45084;51.486;7.366;2023-09-07T06:34:04;16.00;99.90
59313;DHT22;45084;51.486;7.366;2023-09-07T06:36:30;16.10;99.90
59313;DHT22;45084;51.486;7.366;2023-09-07T06:38:57;16.20;99.90
59313;DHT22;45084;51.486;7.366;2023-09-07T06:41:22;16.40;99.90
59313;DHT22;45084;51.486;7.366;2023-09-07T06:43:48;16.60;99.90
59313;DHT22;45084;51.486;7.366;2023-09-07T06:46:13;16.80;99.90
59313;DHT22;45084;51.486;7.366;2023-09-07T06:48:39;16.90;99.90
59313;DHT22;45084;51.486;7.366;2023-09-07T06:51:05;17.10;99.90
59313;DHT22;45084;51.486;7.366;2023-09-07T06:53:31;17.30;99.90
59313;DHT22;45084;51.486;7.366;2023-09-07T06:56:01;17.40;99.90
59313;DHT22;45084;51.486;7.366;2023-09-07T06:58:27;17.60;99.90
59313;DHT22;45084;51.486;7.366;2023-09-07T07:00:56;17.90;99.90
59313;DHT22;45084;51.486;7.366;2023-09-07T07:03:22;18.20;99.90
59313;DHT22;45084;51.486;7.366;2023-09-07T07:05:47;18.50;99.90
59313;DHT22;45084;51.486;7.366;2023-09-07T07:08:13;18.80;99.90
59313;DHT22;45084;51.486;7.366;2023-09-07T07:10:39;18.80;99.90
59313;DHT22;45084;51.486;7.366;2023-09-07T07:13:04;18.90;99.90
59313;DHT22;45084;51.486;7.366;2023-09-07T07:15:30;19.10;99.90
59313;DHT22;45084;51.486;7.366;2023-09-07T07:17:55;19.30;99.90
59313;DHT22;45084;51.486;7.366;2023-09-07T07:20:21;19.40;99.90
59313;DHT22;45084;51.486;7.366;2023-09-07T07:22:49;19.70;99.90
59313;DHT22;45084;51.486;7.366;2023-09-07T07:25:15;19.90;99.90
59313;DHT22;45084;51.486;7.366;2023-09-07T07:27:41;20.00;99.90
59313;DHT22;45084;51.486;7.366;2023-09-07T07:30:06;20.00;99.90
59313;DHT22;45084;51.486;7.366;2023-09-07T07:32:32;20.30;99.90
59313;DHT22;45084;51.486;7.366;2023-09-07T07:34:58;20.50;99.90
59313;DHT22;45084;51.486;7.366;2023-09-07T07:37:23;20.50;99.90
59313;DHT22;45084;51.486;7.366;2023-09-07T07:39:49;20.60;99.90
59313;DHT22;45084;51.486;7.366;2023-09-07T07:42:15;20.60;99.90
59313;DHT22;45084;51.486;7.366;2023-09-07T07:44:40;20.80;99.90
59313;DHT22;45084;51.486;7.366;2023-09-07T07:47:06;21.00;99.90
59313;DHT22;45084;51.486;7.366;2023-09-07T07:49:31;21.10;99.90
59313;DHT22;45084;51.486;7.366;2023-09-07T07:51:58;21.20;99.90
59313;DHT22;45084;51.486;7.366;2023-09-07T07:54:24;21.40;99.90
59313;DHT22;45084;51.486;7.366;2023-09-07T07:56:50;21.70;99.90
59313;DHT22;45084;51.486;7.366;2023-09-07T07:59:16;21.80;99.90
59313;DHT22;45084;51.486;7.366;2023-09-07T08:01:41;22.00;99.90
59313;DHT22;45084;51.486;7.366;2023-09-07T08:04:07;22.10;99.90
59313;DHT22;45084;51.486;7.366;2023-09-07T08:06:33;22.10;99.90
59313;DHT22;45084;51.486;7.366;2023-09-07T08:09:00;22.30;99.90
59313;DHT22;45084;51.486;7.366;2023-09-07T08:11:25;22.50;99.90
59313;DHT22;45084;51.486;7.366;2023-09-07T08:13:52;22.70;99.90
59313;DHT22;45084;51.486;7.366;2023-09-07T08:16:18;23.10;99.90
59313;DHT22;45084;51.486;7.366;2023-09-07T08:18:44;23.30;99.90
59313;DHT22;45084;51.486;7.366;2023-09-07T08:21:09;23.30;99.90
59313;DHT22;45084;51.486;7.366;2023-09-07T08:23:35;23.50;99.90
59313;DHT22;45084;51.486;7.366;2023-09-07T08:26:01;23.50;99.90
59313;DHT22;45084;51.486;7.366;2023-09-07T08:28:28;23.70;99.90
59313;DHT22;45084;51.486;7.366;2023-09-07T08:30:54;23.80;99.90
59313;DHT22;45084;51.486;7.366;2023-09-07T08:33:23;24.00;99.90
59313;DHT22;45084;51.486;7.366;2023-09-07T08:35:52;24.20;99.90
59313;DHT22;45084;51.486;7.366;2023-09-07T08:38:20;24.20;99.90
59313;DHT22;45084;51.486;7.366;2023-09-07T08:40:50;24.30;99.90
59313;DHT22;45084;51.486;7.366;2023-09-07T08:43:16;24.50;99.90
59313;DHT22;45084;51.486;7.366;2023-09-07T08:45:49;24.40;99.90
59313;DHT22;45084;51.486;7.366;2023-09-07T08:48:16;24.50;99.90
59313;DHT22;45084;51.486;7.366;2023-09-07T08:50:45;24.70;99.90
59313;DHT22;45084;51.486;7.366;2023-09-07T08:53:17;24.80;99.90
59313;DHT22;45084;51.486;7.366;2023-09-07T08:55:44;25.00;99.90
59313;DHT22;45084;51.486;7.366;2023-09-07T08:58:10;25.20;99.90
59313;DHT22;45084;51.486;7.366;2023-09-07T09:00:37;25.40;98.00
59313;DHT22;45084;51.486;7.366;2023-09-07T09:03:03;25.30;99.10
59313;DHT22;45084;51.486;7.366;2023-09-07T09:05:30;25.30;98.60
59313;DHT22;45084;51.486;7.366;2023-09-07T09:08:05;25.40;95.70
59313;DHT22;45084;51.486;7.366;2023-09-07T09:10:31;25.30;97.60
59313;DHT22;45084;51.486;7.366;2023-09-07T09:12:57;25.40;97.40
59313;DHT22;45084;51.486;7.366;2023-09-07T09:15:25;25.40;99.40
59313;DHT22;45084;51.486;7.366;2023-09-07T09:17:52;25.50;95.00
59313;DHT22;45084;51.486;7.366;2023-09-07T09:20:25;25.60;94.00
59313;DHT22;45084;51.486;7.366;2023-09-07T09:22:54;25.70;94.40
59313;DHT22;45084;51.486;7.366;2023-09-07T09:25:21;25.90;93.40
59313;DHT22;45084;51.486;7.366;2023-09-07T09:27:47;25.70;93.10
59313;DHT22;45084;51.486;7.366;2023-09-07T09:30:14;25.80;93.10
59313;DHT22;45084;51.486;7.366;2023-09-07T09:32:42;25.70;92.20
59313;DHT22;45084;51.486;7.366;2023-09-07T09:35:08;25.50;95.80
59313;DHT22;45084;51.486;7.366;2023-09-07T09:37:47;25.60;96.70
59313;DHT22;45084;51.486;7.366;2023-09-07T09:40:14;25.70;96.10
59313;DHT22;45084;51.486;7.366;2023-09-07T09:42:43;25.90;94.50
59313;DHT22;45084;51.486;7.366;2023-09-07T09:45:10;25.90;95.50
59313;DHT22;45084;51.486;7.366;2023-09-07T09:47:42;26.10;97.00
59313;DHT22;45084;51.486;7.366;2023-09-07T09:50:09;26.40;93.40
59313;DHT22;45084;51.486;7.366;2023-09-07T09:52:36;26.30;94.40
59313;DHT22;45084;51.486;7.366;2023-09-07T09:55:06;26.20;94.90
59313;DHT22;45084;51.486;7.366;2023-09-07T09:57:34;26.40;95.90
59313;DHT22;45084;51.486;7.366;2023-09-07T10:00:00;26.20;95.20
59313;DHT22;45084;51.486;7.366;2023-09-07T10:02:34;26.30;93.90
59313;DHT22;45084;51.486;7.366;2023-09-07T10:05:02;26.50;93.30
59313;DHT22;45084;51.486;7.366;2023-09-07T10:07:47;26.70;92.40
59313;DHT22;45084;51.486;7.366;2023-09-07T10:10:13;26.60;92.90
59313;DHT22;45084;51.486;7.366;2023-09-07T10:12:52;26.60;91.50
59313;DHT22;45084;51.486;7.366;2023-09-07T10:15:26;26.60;95.40
59313;DHT22;45084;51.486;7.366;2023-09-07T10:18:14;26.80;93.80
59313;DHT22;45084;51.486;7.366;2023-09-07T10:20:50;26.60;91.10
59313;DHT22;45084;51.486;7.366;2023-09-07T10:23:17;26.60;93.60
59313;DHT22;45084;51.486;7.366;2023-09-07T10:25:51;26.70;92.40
59313;DHT22;45084;51.486;7.366;2023-09-07T10:28:24;26.90;91.30
59313;DHT22;45084;51.486;7.366;2023-09-07T10:31:04;26.60;94.10
59313;DHT22;45084;51.486;7.366;2023-09-07T10:33:34;26.80;92.10
59313;DHT22;45084;51.486;7.366;2023-09-07T10:36:00;26.80;91.00
59313;DHT22;45084;51.486;7.366;2023-09-07T10:38:27;27.10;92.20
59313;DHT22;45084;51.486;7.366;2023-09-07T10:40:57;27.20;90.30
59313;DHT22;45084;51.486;7.366;2023-09-07T10:43:27;27.10;88.10
59313;DHT22;45084;51.486;7.366;2023-09-07T10:45:54;27.20;87.40
59313;DHT22;45084;51.486;7.366;2023-09-07T10:48:20;27.40;91.50
59313;DHT22;45084;51.486;7.366;2023-09-07T10:50:46;27.30;92.30
59313;DHT22;45084;51.486;7.366;2023-09-07T10:53:13;27.10;88.70
59313;DHT22;45084;51.486;7.366;2023-09-07T10:55:42;27.40;90.10
59313;DHT22;45084;51.486;7.366;2023-09-07T10:58:10;27.60;87.20
59313;DHT22;45084;51.486;7.366;2023-09-07T11:00:36;27.80;86.30
59313;DHT22;45084;51.486;7.366;2023-09-07T11:03:09;27.40;88.50
59313;DHT22;45084;51.486;7.366;2023-09-07T11:05:37;27.60;90.20
59313;DHT22;45084;51.486;7.366;2023-09-07T11:08:05;27.40;87.60
59313;DHT22;45084;51.486;7.366;2023-09-07T11:10:35;27.60;85.30
59313;DHT22;45084;51.486;7.366;2023-09-07T11:13:05;27.50;91.80
59313;DHT22;45084;51.486;7.366;2023-09-07T11:15:32;27.60;85.40
59313;DHT22;45084;51.486;7.366;2023-09-07T11:18:05;27.70;82.60
59313;DHT22;45084;51.486;7.366;2023-09-07T11:20:33;27.80;80.40
59313;DHT22;45084;51.486;7.366;2023-09-07T11:22:59;27.60;86.20
59313;DHT22;45084;51.486;7.366;2023-09-07T11:25:25;27.90;85.70
59313;DHT22;45084;51.486;7.366;2023-09-07T11:27:52;28.00;84.30
59313;DHT22;45084;51.486;7.366;2023-09-07T11:30:23;28.20;82.10
59313;DHT22;45084;51.486;7.366;2023-09-07T11:32:49;28.30;84.40
59313;DHT22;45084;51.486;7.366;2023-09-07T11:35:15;28.20;88.60
59313;DHT22;45084;51.486;7.366;2023-09-07T11:37:41;28.30;84.40
59313;DHT22;45084;51.486;7.366;2023-09-07T11:40:08;28.10;91.20
59313;DHT22;45084;51.486;7.366;2023-09-07T11:42:38;28.20;85.50
59313;DHT22;45084;51.486;7.366;2023-09-07T11:45:06;28.00;84.10
59313;DHT22;45084;51.486;7.366;2023-09-07T11:47:32;28.00;81.10
59313;DHT22;45084;51.486;7.366;2023-09-07T11:49:58;28.00;84.20
59313;DHT22;45084;51.486;7.366;2023-09-07T11:52:23;27.90;90.30
59313;DHT22;45084;51.486;7.366;2023-09-07T11:54:49;28.20;81.50
59313;DHT22;45084;51.486;7.366;2023-09-07T11:57:14;28.20;85.80
59313;DHT22;45084;51.486;7.366;2023-09-07T11:59:41;28.20;88.20
59313;DHT22;45084;51.486;7.366;2023-09-07T12:02:07;28.20;85.40
59313;DHT22;45084;51.486;7.366;2023-09-07T12:04:32;28.40;81.20
59313;DHT22;45084;51.486;7.366;2023-09-07T12:06:58;28.50;86.30
59313;DHT22;45084;51.486;7.366;2023-09-07T12:09:24;28.70;85.30
59313;DHT22;45084;51.486;7.366;2023-09-07T12:11:50;28.50;83.80
59313;DHT22;45084;51.486;7.366;2023-09-07T12:14:15;28.50;80.00
59313;DHT22;45084;51.486;7.366;2023-09-07T12:16:41;28.50;79.20
59313;DHT22;45084;51.486;7.366;2023-09-07T12:19:07;28.50;77.20
59313;DHT22;45084;51.486;7.366;2023-09-07T12:21:32;28.50;82.80
59313;DHT22;45084;51.486;7.366;2023-09-07T12:23:58;28.50;85.60
59313;DHT22;45084;51.486;7.366;2023-09-07T12:26:24;28.70;81.20
59313;DHT22;45084;51.486;7.366;2023-09-07T12:28:50;28.80;80.80
59313;DHT22;45084;51.486;7.366;2023-09-07T12:31:15;28.70;82.50
59313;DHT22;45084;51.486;7.366;2023-09-07T12:33:42;28.70;76.80
59313;DHT22;45084;51.486;7.366;2023-09-07T12:36:07;28.80;76.90
59313;DHT22;45084;51.486;7.366;2023-09-07T12:38:37;28.60;80.50
59313;DHT22;45084;51.486;7.366;2023-09-07T12:41:02;28.70;77.40
59313;DHT22;45084;51.486;7.366;2023-09-07T12:43:28;28.80;75.50
59313;DHT22;45084;51.486;7.366;2023-09-07T12:45:54;28.90;76.50
59313;DHT22;45084;51.486;7.366;2023-09-07T12:48:20;28.90;76.50
59313;DHT22;45084;51.486;7.366;2023-09-07T12:50:46;29.00;77.60
59313;DHT22;45084;51.486;7.366;2023-09-07T12:53:11;29.10;79.60
59313;DHT22;45084;51.486;7.366;2023-09-07T12:55:37;29.10;77.70
59313;DHT22;45084;51.486;7.366;2023-09-07T12:58:03;29.10;81.30
59313;DHT22;45084;51.486;7.366;2023-09-07T13:00:29;29.00;84.00
59313;DHT22;45084;51.486;7.366;2023-09-07T13:02:55;29.00;89.20
59313;DHT22;45084;51.486;7.366;2023-09-07T13:05:21;29.20;80.60
59313;DHT22;45084;51.486;7.366;2023-09-07T13:07:49;29.20;75.00
59313;DHT22;45084;51.486;7.366;2023-09-07T13:10:15;28.90;79.70
59313;DHT22;45084;51.486;7.366;2023-09-07T13:12:41;29.10;76.90
59313;DHT22;45084;51.486;7.366;2023-09-07T13:15:07;29.10;81.70
59313;DHT22;45084;51.486;7.366;2023-09-07T13:17:33;29.00;79.80
59313;DHT22;45084;51.486;7.366;2023-09-07T13:19:59;29.20;84.20
59313;DHT22;45084;51.486;7.366;2023-09-07T13:22:25;29.20;78.80
59313;DHT22;45084;51.486;7.366;2023-09-07T13:24:50;29.20;81.00
59313;DHT22;45084;51.486;7.366;2023-09-07T13:27:16;29.10;86.30
59313;DHT22;45084;51.486;7.366;2023-09-07T13:29:41;29.20;86.50
59313;DHT22;45084;51.486;7.366;2023-09-07T13:32:08;29.30;79.70
59313;DHT22;45084;51.486;7.366;2023-09-07T13:34:33;29.20;79.20
59313;DHT22;45084;51.486;7.366;2023-09-07T13:36:59;29.10;77.60
59313;DHT22;45084;51.486;7.366;2023-09-07T13:39:25;29.40;82.80
59313;DHT22;45084;51.486;7.366;2023-09-07T13:41:50;29.50;78.00
59313;DHT22;45084;51.486;7.366;2023-09-07T13:44:16;29.50;75.30
59313;DHT22;45084;51.486;7.366;2023-09-07T13:46:43;29.40;75.40
59313;DHT22;45084;51.486;7.366;2023-09-07T13:49:09;29.40;74.00
59313;DHT22;45084;51.486;7.366;2023-09-07T13:51:35;29.30;75.50
59313;DHT22;45084;51.486;7.366;2023-09-07T13:54:08;29.40;73.00
59313;DHT22;45084;51.486;7.366;2023-09-07T13:56:33;29.40;74.70
59313;DHT22;45084;51.486;7.366;2023-09-07T13:59:00;29.20;74.80
59313;DHT22;45084;51.486;7.366;2023-09-07T14:01:26;29.20;74.70
59313;DHT22;45084;51.486;7.366;2023-09-07T14:03:52;29.20;70.90
59313;DHT22;45084;51.486;7.366;2023-09-07T14:06:17;29.10;71.20
59313;DHT22;45084;51.486;7.366;2023-09-07T14:08:45;29.20;75.50
59313;DHT22;45084;51.486;7.366;2023-09-07T14:11:11;29.20;72.80
59313;DHT22;45084;51.486;7.366;2023-09-07T14:13:37;29.30;70.10
59313;DHT22;45084;51.486;7.366;2023-09-07T14:16:04;29.40;71.40
59313;DHT22;45084;51.486;7.366;2023-09-07T14:18:30;29.50;68.10
59313;DHT22;45084;51.486;7.366;2023-09-07T14:20:55;29.60;68.40
59313;DHT22;45084;51.486;7.366;2023-09-07T14:23:24;29.50;65.20
59313;DHT22;45084;51.486;7.366;2023-09-07T14:25:54;29.60;66.10
59313;DHT22;45084;51.486;7.366;2023-09-07T14:28:20;29.60;67.50
59313;DHT22;45084;51.486;7.366;2023-09-07T14:30:46;29.50;70.30
59313;DHT22;45084;51.486;7.366;2023-09-07T14:33:12;29.60;69.20
59313;DHT22;45084;51.486;7.366;2023-09-07T14:35:37;29.60;67.10
59313;DHT22;45084;51.486;7.366;2023-09-07T14:38:03;29.50;70.20
59313;DHT22;45084;51.486;7.366;2023-09-07T14:40:29;29.50;68.80
59313;DHT22;45084;51.486;7.366;2023-09-07T14:42:55;29.40;64.20
59313;DHT22;45084;51.486;7.366;2023-09-07T14:45:23;29.20;61.70
59313;DHT22;45084;51.486;7.366;2023-09-07T14:47:52;29.40;63.50
59313;DHT22;45084;51.486;7.366;2023-09-07T14:50:18;29.30;63.50
59313;DHT22;45084;51.486;7.366;2023-09-07T14:52:44;29.50;67.00
59313;DHT22;45084;51.486;7.366;2023-09-07T14:55:13;29.40;63.20
59313;DHT22;45084;51.486;7.366;2023-09-07T14:57:40;29.20;65.40
59313;DHT22;45084;51.486;7.366;2023-09-07T15:00:06;29.20;66.70
59313;DHT22;45084;51.486;7.366;2023-09-07T15:02:32;29.40;65.30
59313;DHT22;45084;51.486;7.366;2023-09-07T15:04:58;29.30;64.40
59313;DHT22;45084;51.486;7.366;2023-09-07T15:07:24;29.40;64.80
59313;DHT22;45084;51.486;7.366;2023-09-07T15:09:50;29.30;63.00
59313;DHT22;45084;51.486;7.366;2023-09-07T15:12:15;29.40;61.80
59313;DHT22;45084;51.486;7.366;2023-09-07T15:14:41;29.20;63.90
59313;DHT22;45084;51.486;7.366;2023-09-07T15:17:08;29.10;64.60
59313;DHT22;45084;51.486;7.366;2023-09-07T15:19:34;29.20;63.40
59313;DHT22;45084;51.486;7.366;2023-09-07T15:22:00;29.00;64.70
59313;DHT22;45084;51.486;7.366;2023-09-07T15:24:26;28.90;64.40
59313;DHT22;45084;51.486;7.366;2023-09-07T15:26:51;28.90;61.10
59313;DHT22;45084;51.486;7.366;2023-09-07T15:29:17;29.00;64.50
59313;DHT22;45084;51.486;7.366;2023-09-07T15:31:43;29.00;64.80
59313;DHT22;45084;51.486;7.366;2023-09-07T15:34:09;29.00;65.10
59313;DHT22;45084;51.486;7.366;2023-09-07T15:36:35;28.80;62.00
59313;DHT22;45084;51.486;7.366;2023-09-07T15:39:01;28.70;64.20
59313;DHT22;45084;51.486;7.366;2023-09-07T15:41:27;28.60;64.20
59313;DHT22;45084;51.486;7.366;2023-09-07T15:43:54;28.60;62.90
59313;DHT22;45084;51.486;7.366;2023-09-07T15:46:20;28.50;63.00